sensor_id;sensor_type;location;lat;lon;timestamp;P1;durP1;ratioP1;P2;durP2;ratioP2
17369;SDS011;8802;52.402;4.920;2024-01-25T00:00:16;23.27;;;5.20;;
17369;SDS011;8802;52.402;4.920;2024-01-25T00:02:43;30.30;;;5.50;;
17369;SDS011;8802;52.402;4.920;2024-01-25T00:05:10;19.58;;;4.68;;
17369;SDS011;8802;52.402;4.920;2024-01-25T00:07:44;16.58;;;4.82;;
17369;SDS011;8802;52.402;4.920;2024-01-25T00:10:13;22.05;;;5.93;;
17369;SDS011;8802;52.402;4.920;2024-01-25T00:12:41;19.90;;;5.50;;
17369;SDS011;8802;52.402;4.920;2024-01-25T00:15:08;24.45;;;5.38;;
17369;SDS011;8802;52.402;4.920;2024-01-25T00:17:35;22.52;;;5.32;;
17369;SDS011;8802;52.402;4.920;2024-01-25T00:20:02;24.77;;;4.93;;
17369;SDS011;8802;52.402;4.920;2024-01-25T00:22:30;23.20;;;4.78;;
17369;SDS011;8802;52.402;4.920;2024-01-25T00:24:57;23.33;;;5.38;;
17369;SDS011;8802;52.402;4.920;2024-01-25T00:27:25;20.08;;;5.30;;
17369;SDS011;8802;52.402;4.920;2024-01-25T00:29:52;20.45;;;5.28;;
17369;SDS011;8802;52.402;4.920;2024-01-25T00:32:19;25.10;;;5.47;;
17369;SDS011;8802;52.402;4.920;2024-01-25T00:34:46;26.02;;;5.22;;
17369;SDS011;8802;52.402;4.920;2024-01-25T00:37:13;19.08;;;5.57;;
17369;SDS011;8802;52.402;4.920;2024-01-25T00:39:41;28.48;;;5.13;;
17369;SDS011;8802;52.402;4.920;2024-01-25T00:42:08;25.42;;;5.97;;
17369;SDS011;8802;52.402;4.920;2024-01-25T00:44:40;22.92;;;5.40;;
17369;SDS011;8802;52.402;4.920;2024-01-25T00:47:08;22.30;;;5.05;;
17369;SDS011;8802;52.402;4.920;2024-01-25T00:49:35;20.08;;;4.85;;
17369;SDS011;8802;52.402;4.920;2024-01-25T00:52:03;22.40;;;5.15;;
17369;SDS011;8802;52.402;4.920;2024-01-25T00:54:30;27.40;;;6.43;;
17369;SDS011;8802;52.402;4.920;2024-01-25T00:56:58;23.10;;;5.88;;
17369;SDS011;8802;52.402;4.920;2024-01-25T00:59:25;21.27;;;4.85;;
17369;SDS011;8802;52.402;4.920;2024-01-25T01:01:54;19.75;;;5.30;;
17369;SDS011;8802;52.402;4.920;2024-01-25T01:04:22;27.55;;;5.90;;
17369;SDS011;8802;52.402;4.920;2024-01-25T01:06:50;21.23;;;4.90;;
17369;SDS011;8802;52.402;4.920;2024-01-25T01:09:17;25.92;;;5.82;;
17369;SDS011;8802;52.402;4.920;2024-01-25T01:11:44;21.05;;;5.07;;
17369;SDS011;8802;52.402;4.920;2024-01-25T01:14:11;22.40;;;5.10;;
17369;SDS011;8802;52.402;4.920;2024-01-25T01:16:38;18.50;;;4.82;;
17369;SDS011;8802;52.402;4.920;2024-01-25T01:19:06;19.73;;;4.68;;
17369;SDS011;8802;52.402;4.920;2024-01-25T01:21:33;26.85;;;5.53;;
17369;SDS011;8802;52.402;4.920;2024-01-25T01:24:00;21.85;;;5.18;;
17369;SDS011;8802;52.402;4.920;2024-01-25T01:26:27;23.35;;;5.40;;
17369;SDS011;8802;52.402;4.920;2024-01-25T01:28:54;19.67;;;5.53;;
17369;SDS011;8802;52.402;4.920;2024-01-25T01:31:21;20.08;;;5.05;;
17369;SDS011;8802;52.402;4.920;2024-01-25T01:33:48;20.30;;;5.38;;
17369;SDS011;8802;52.402;4.920;2024-01-25T01:36:16;29.05;;;6.13;;
17369;SDS011;8802;52.402;4.920;2024-01-25T01:38:43;26.90;;;5.72;;
17369;SDS011;8802;52.402;4.920;2024-01-25T01:41:10;20.13;;;5.20;;
17369;SDS011;8802;52.402;4.920;2024-01-25T01:43:37;26.08;;;5.88;;
17369;SDS011;8802;52.402;4.920;2024-01-25T01:46:06;25.77;;;5.72;;
17369;SDS011;8802;52.402;4.920;2024-01-25T01:48:36;23.33;;;5.82;;
17369;SDS011;8802;52.402;4.920;2024-01-25T01:51:03;29.92;;;6.38;;
17369;SDS011;8802;52.402;4.920;2024-01-25T01:53:31;24.75;;;5.25;;
17369;SDS011;8802;52.402;4.920;2024-01-25T01:55:59;18.90;;;5.10;;
17369;SDS011;8802;52.402;4.920;2024-01-25T01:58:26;22.52;;;5.88;;
17369;SDS011;8802;52.402;4.920;2024-01-25T02:00:55;27.58;;;5.97;;
17369;SDS011;8802;52.402;4.920;2024-01-25T02:03:24;22.50;;;5.10;;
17369;SDS011;8802;52.402;4.920;2024-01-25T02:05:51;18.65;;;5.22;;
17369;SDS011;8802;52.402;4.920;2024-01-25T02:08:18;23.00;;;5.65;;
17369;SDS011;8802;52.402;4.920;2024-01-25T02:10:46;22.30;;;5.25;;
17369;SDS011;8802;52.402;4.920;2024-01-25T02:13:13;25.10;;;5.55;;
17369;SDS011;8802;52.402;4.920;2024-01-25T02:15:39;20.58;;;5.60;;
17369;SDS011;8802;52.402;4.920;2024-01-25T02:18:06;23.63;;;5.50;;
17369;SDS011;8802;52.402;4.920;2024-01-25T02:20:33;18.30;;;4.72;;
17369;SDS011;8802;52.402;4.920;2024-01-25T02:23:01;24.60;;;5.28;;
17369;SDS011;8802;52.402;4.920;2024-01-25T02:25:28;25.17;;;5.90;;
17369;SDS011;8802;52.402;4.920;2024-01-25T02:27:55;23.02;;;6.13;;
17369;SDS011;8802;52.402;4.920;2024-01-25T02:30:22;16.77;;;4.88;;
17369;SDS011;8802;52.402;4.920;2024-01-25T02:32:49;25.08;;;5.10;;
17369;SDS011;8802;52.402;4.920;2024-01-25T02:35:16;29.33;;;6.35;;
17369;SDS011;8802;52.402;4.920;2024-01-25T02:37:43;25.67;;;5.35;;
17369;SDS011;8802;52.402;4.920;2024-01-25T02:40:11;20.77;;;5.13;;
17369;SDS011;8802;52.402;4.920;2024-01-25T02:42:39;18.80;;;5.10;;
17369;SDS011;8802;52.402;4.920;2024-01-25T02:45:06;21.20;;;5.50;;
17369;SDS011;8802;52.402;4.920;2024-01-25T02:47:33;25.73;;;6.28;;
17369;SDS011;8802;52.402;4.920;2024-01-25T02:50:00;21.02;;;5.80;;
17369;SDS011;8802;52.402;4.920;2024-01-25T02:52:27;18.70;;;5.65;;
17369;SDS011;8802;52.402;4.920;2024-01-25T02:54:53;21.50;;;5.20;;
17369;SDS011;8802;52.402;4.920;2024-01-25T02:57:22;24.67;;;5.53;;
17369;SDS011;8802;52.402;4.920;2024-01-25T02:59:49;24.52;;;5.07;;
17369;SDS011;8802;52.402;4.920;2024-01-25T03:02:15;24.38;;;6.13;;
17369;SDS011;8802;52.402;4.920;2024-01-25T03:04:44;24.70;;;5.53;;
17369;SDS011;8802;52.402;4.920;2024-01-25T03:07:11;19.00;;;5.55;;
17369;SDS011;8802;52.402;4.920;2024-01-25T03:09:38;24.80;;;5.82;;
17369;SDS011;8802;52.402;4.920;2024-01-25T03:12:05;32.60;;;5.88;;
17369;SDS011;8802;52.402;4.920;2024-01-25T03:14:33;21.48;;;5.15;;
17369;SDS011;8802;52.402;4.920;2024-01-25T03:17:00;23.75;;;5.38;;
17369;SDS011;8802;52.402;4.920;2024-01-25T03:19:27;31.75;;;6.50;;
17369;SDS011;8802;52.402;4.920;2024-01-25T03:21:54;30.67;;;5.93;;
17369;SDS011;8802;52.402;4.920;2024-01-25T03:24:21;31.95;;;5.85;;
17369;SDS011;8802;52.402;4.920;2024-01-25T03:26:47;24.20;;;6.00;;
17369;SDS011;8802;52.402;4.920;2024-01-25T03:29:14;28.30;;;5.43;;
17369;SDS011;8802;52.402;4.920;2024-01-25T03:31:42;19.05;;;4.80;;
17369;SDS011;8802;52.402;4.920;2024-01-25T03:34:09;23.55;;;5.88;;
17369;SDS011;8802;52.402;4.920;2024-01-25T03:36:37;24.50;;;6.13;;
17369;SDS011;8802;52.402;4.920;2024-01-25T03:39:04;26.83;;;5.95;;
17369;SDS011;8802;52.402;4.920;2024-01-25T03:41:32;25.85;;;6.97;;
17369;SDS011;8802;52.402;4.920;2024-01-25T03:43:59;28.80;;;6.07;;
17369;SDS011;8802;52.402;4.920;2024-01-25T03:46:26;27.95;;;6.20;;
17369;SDS011;8802;52.402;4.920;2024-01-25T03:48:54;26.52;;;6.78;;
17369;SDS011;8802;52.402;4.920;2024-01-25T03:51:21;24.70;;;6.05;;
17369;SDS011;8802;52.402;4.920;2024-01-25T03:53:49;28.13;;;6.32;;
17369;SDS011;8802;52.402;4.920;2024-01-25T03:56:17;25.08;;;5.60;;
17369;SDS011;8802;52.402;4.920;2024-01-25T03:58:44;26.00;;;5.68;;
17369;SDS011;8802;52.402;4.920;2024-01-25T04:01:11;25.75;;;5.78;;
17369;SDS011;8802;52.402;4.920;2024-01-25T04:03:38;17.75;;;5.95;;
17369;SDS011;8802;52.402;4.920;2024-01-25T04:06:07;27.25;;;6.18;;
17369;SDS011;8802;52.402;4.920;2024-01-25T04:08:34;29.83;;;6.68;;
17369;SDS011;8802;52.402;4.920;2024-01-25T04:11:01;24.60;;;5.78;;
17369;SDS011;8802;52.402;4.920;2024-01-25T04:13:28;25.15;;;6.28;;
17369;SDS011;8802;52.402;4.920;2024-01-25T04:15:55;22.85;;;6.05;;
17369;SDS011;8802;52.402;4.920;2024-01-25T04:18:21;21.88;;;5.78;;
17369;SDS011;8802;52.402;4.920;2024-01-25T04:20:48;23.35;;;6.78;;
17369;SDS011;8802;52.402;4.920;2024-01-25T04:23:17;24.70;;;6.68;;
17369;SDS011;8802;52.402;4.920;2024-01-25T04:25:44;23.00;;;6.05;;
17369;SDS011;8802;52.402;4.920;2024-01-25T04:28:11;20.48;;;5.43;;
17369;SDS011;8802;52.402;4.920;2024-01-25T04:30:38;28.90;;;6.70;;
17369;SDS011;8802;52.402;4.920;2024-01-25T04:33:05;23.35;;;5.90;;
17369;SDS011;8802;52.402;4.920;2024-01-25T04:35:32;20.63;;;6.30;;
17369;SDS011;8802;52.402;4.920;2024-01-25T04:37:58;15.57;;;5.22;;
17369;SDS011;8802;52.402;4.920;2024-01-25T04:40:27;18.33;;;4.95;;
17369;SDS011;8802;52.402;4.920;2024-01-25T04:42:54;23.13;;;5.72;;
17369;SDS011;8802;52.402;4.920;2024-01-25T04:45:20;17.52;;;5.45;;
17369;SDS011;8802;52.402;4.920;2024-01-25T04:47:47;19.30;;;5.38;;
17369;SDS011;8802;52.402;4.920;2024-01-25T04:50:14;22.80;;;4.95;;
17369;SDS011;8802;52.402;4.920;2024-01-25T04:52:41;15.50;;;5.35;;
17369;SDS011;8802;52.402;4.920;2024-01-25T04:55:08;16.30;;;4.43;;
17369;SDS011;8802;52.402;4.920;2024-01-25T04:57:36;15.30;;;4.75;;
17369;SDS011;8802;52.402;4.920;2024-01-25T05:00:03;15.50;;;4.82;;
17369;SDS011;8802;52.402;4.920;2024-01-25T05:02:31;16.55;;;5.13;;
17369;SDS011;8802;52.402;4.920;2024-01-25T05:04:58;21.25;;;5.60;;
17369;SDS011;8802;52.402;4.920;2024-01-25T05:07:25;17.15;;;4.85;;
17369;SDS011;8802;52.402;4.920;2024-01-25T05:09:52;20.13;;;5.38;;
17369;SDS011;8802;52.402;4.920;2024-01-25T05:12:18;20.90;;;5.30;;
17369;SDS011;8802;52.402;4.920;2024-01-25T05:14:47;18.27;;;5.20;;
17369;SDS011;8802;52.402;4.920;2024-01-25T05:17:14;18.10;;;4.90;;
17369;SDS011;8802;52.402;4.920;2024-01-25T05:19:40;26.88;;;6.47;;
17369;SDS011;8802;52.402;4.920;2024-01-25T05:22:07;22.50;;;5.22;;
17369;SDS011;8802;52.402;4.920;2024-01-25T05:24:34;25.58;;;5.03;;
17369;SDS011;8802;52.402;4.920;2024-01-25T05:27:01;21.40;;;5.40;;
17369;SDS011;8802;52.402;4.920;2024-01-25T05:29:28;17.33;;;4.50;;
17369;SDS011;8802;52.402;4.920;2024-01-25T05:31:56;24.98;;;6.40;;
17369;SDS011;8802;52.402;4.920;2024-01-25T05:34:23;25.52;;;5.32;;
17369;SDS011;8802;52.402;4.920;2024-01-25T05:36:50;19.05;;;4.53;;
17369;SDS011;8802;52.402;4.920;2024-01-25T05:39:18;20.38;;;4.80;;
17369;SDS011;8802;52.402;4.920;2024-01-25T05:41:46;24.27;;;5.05;;
17369;SDS011;8802;52.402;4.920;2024-01-25T05:44:12;18.30;;;4.75;;
17369;SDS011;8802;52.402;4.920;2024-01-25T05:46:39;27.70;;;5.70;;
17369;SDS011;8802;52.402;4.920;2024-01-25T05:49:07;18.17;;;4.95;;
17369;SDS011;8802;52.402;4.920;2024-01-25T05:51:35;15.25;;;5.00;;
17369;SDS011;8802;52.402;4.920;2024-01-25T05:54:02;18.02;;;5.38;;
17369;SDS011;8802;52.402;4.920;2024-01-25T05:56:29;24.98;;;5.70;;
17369;SDS011;8802;52.402;4.920;2024-01-25T05:58:56;21.83;;;5.03;;
17369;SDS011;8802;52.402;4.920;2024-01-25T06:01:23;19.40;;;5.43;;
17369;SDS011;8802;52.402;4.920;2024-01-25T06:03:49;21.60;;;4.53;;
17369;SDS011;8802;52.402;4.920;2024-01-25T06:06:18;24.33;;;5.50;;
17369;SDS011;8802;52.402;4.920;2024-01-25T06:08:45;24.27;;;5.03;;
17369;SDS011;8802;52.402;4.920;2024-01-25T06:11:12;27.23;;;5.10;;
17369;SDS011;8802;52.402;4.920;2024-01-25T06:13:39;20.90;;;4.93;;
17369;SDS011;8802;52.402;4.920;2024-01-25T06:16:05;24.50;;;5.72;;
17369;SDS011;8802;52.402;4.920;2024-01-25T06:18:33;19.05;;;4.60;;
17369;SDS011;8802;52.402;4.920;2024-01-25T06:21:00;22.55;;;5.25;;
17369;SDS011;8802;52.402;4.920;2024-01-25T06:23:28;17.63;;;4.93;;
17369;SDS011;8802;52.402;4.920;2024-01-25T06:25:55;21.98;;;5.20;;
17369;SDS011;8802;52.402;4.920;2024-01-25T06:28:21;16.40;;;4.80;;
17369;SDS011;8802;52.402;4.920;2024-01-25T06:30:48;23.75;;;5.50;;
17369;SDS011;8802;52.402;4.920;2024-01-25T06:33:15;27.95;;;5.25;;
17369;SDS011;8802;52.402;4.920;2024-01-25T06:35:42;16.33;;;4.50;;
17369;SDS011;8802;52.402;4.920;2024-01-25T06:38:09;21.05;;;5.07;;
17369;SDS011;8802;52.402;4.920;2024-01-25T06:40:37;21.55;;;5.80;;
17369;SDS011;8802;52.402;4.920;2024-01-25T06:43:04;21.08;;;4.97;;
17369;SDS011;8802;52.402;4.920;2024-01-25T06:45:31;22.13;;;4.93;;
17369;SDS011;8802;52.402;4.920;2024-01-25T06:47:58;17.30;;;4.63;;
17369;SDS011;8802;52.402;4.920;2024-01-25T06:50:24;14.48;;;4.75;;
17369;SDS011;8802;52.402;4.920;2024-01-25T06:52:51;17.35;;;4.72;;
17369;SDS011;8802;52.402;4.920;2024-01-25T06:55:18;21.27;;;4.50;;
17369;SDS011;8802;52.402;4.920;2024-01-25T06:57:47;22.80;;;4.75;;
17369;SDS011;8802;52.402;4.920;2024-01-25T07:00:14;17.90;;;4.65;;
17369;SDS011;8802;52.402;4.920;2024-01-25T07:02:41;23.48;;;5.05;;
17369;SDS011;8802;52.402;4.920;2024-01-25T07:05:09;12.48;;;5.30;;
17369;SDS011;8802;52.402;4.920;2024-01-25T07:07:36;19.45;;;5.03;;
17369;SDS011;8802;52.402;4.920;2024-01-25T07:10:05;22.48;;;5.20;;
17369;SDS011;8802;52.402;4.920;2024-01-25T07:12:32;23.92;;;5.75;;
17369;SDS011;8802;52.402;4.920;2024-01-25T07:15:01;20.70;;;4.72;;
17369;SDS011;8802;52.402;4.920;2024-01-25T07:17:28;20.35;;;5.22;;
17369;SDS011;8802;52.402;4.920;2024-01-25T07:19:54;15.50;;;4.30;;
17369;SDS011;8802;52.402;4.920;2024-01-25T07:22:21;18.10;;;4.75;;
17369;SDS011;8802;52.402;4.920;2024-01-25T07:24:48;26.73;;;5.45;;
17369;SDS011;8802;52.402;4.920;2024-01-25T07:27:15;18.08;;;5.13;;
17369;SDS011;8802;52.402;4.920;2024-01-25T07:29:43;19.88;;;5.13;;
17369;SDS011;8802;52.402;4.920;2024-01-25T07:32:11;17.05;;;4.47;;
17369;SDS011;8802;52.402;4.920;2024-01-25T07:34:38;20.88;;;4.63;;
17369;SDS011;8802;52.402;4.920;2024-01-25T07:37:05;21.60;;;4.93;;
17369;SDS011;8802;52.402;4.920;2024-01-25T07:39:32;18.50;;;4.93;;
17369;SDS011;8802;52.402;4.920;2024-01-25T07:41:59;16.08;;;4.63;;
17369;SDS011;8802;52.402;4.920;2024-01-25T07:44:26;19.27;;;5.47;;
17369;SDS011;8802;52.402;4.920;2024-01-25T07:46:52;24.17;;;4.95;;
17369;SDS011;8802;52.402;4.920;2024-01-25T07:49:21;19.80;;;5.15;;
17369;SDS011;8802;52.402;4.920;2024-01-25T07:51:47;18.50;;;4.65;;
17369;SDS011;8802;52.402;4.920;2024-01-25T07:54:14;24.67;;;5.30;;
17369;SDS011;8802;52.402;4.920;2024-01-25T07:56:41;18.85;;;5.25;;
17369;SDS011;8802;52.402;4.920;2024-01-25T07:59:07;19.48;;;5.60;;
17369;SDS011;8802;52.402;4.920;2024-01-25T08:01:35;20.63;;;4.90;;
17369;SDS011;8802;52.402;4.920;2024-01-25T08:04:01;24.08;;;4.70;;
17369;SDS011;8802;52.402;4.920;2024-01-25T08:06:30;20.52;;;4.90;;
17369;SDS011;8802;52.402;4.920;2024-01-25T08:08:57;18.83;;;4.80;;
17369;SDS011;8802;52.402;4.920;2024-01-25T08:11:24;24.13;;;5.38;;
17369;SDS011;8802;52.402;4.920;2024-01-25T08:13:51;20.27;;;5.18;;
17369;SDS011;8802;52.402;4.920;2024-01-25T08:16:18;24.35;;;5.43;;
17369;SDS011;8802;52.402;4.920;2024-01-25T08:18:45;20.17;;;5.40;;
17369;SDS011;8802;52.402;4.920;2024-01-25T08:21:12;26.52;;;6.15;;
17369;SDS011;8802;52.402;4.920;2024-01-25T08:23:41;21.23;;;5.25;;
17369;SDS011;8802;52.402;4.920;2024-01-25T08:26:08;21.20;;;4.57;;
17369;SDS011;8802;52.402;4.920;2024-01-25T08:28:38;18.08;;;6.13;;
17369;SDS011;8802;52.402;4.920;2024-01-25T08:31:05;25.17;;;5.43;;
17369;SDS011;8802;52.402;4.920;2024-01-25T08:33:32;21.65;;;6.10;;
17369;SDS011;8802;52.402;4.920;2024-01-25T08:35:59;16.55;;;5.05;;
17369;SDS011;8802;52.402;4.920;2024-01-25T08:38:26;19.45;;;5.70;;
17369;SDS011;8802;52.402;4.920;2024-01-25T08:40:54;21.90;;;5.47;;
17369;SDS011;8802;52.402;4.920;2024-01-25T08:43:21;23.30;;;5.50;;
17369;SDS011;8802;52.402;4.920;2024-01-25T08:45:48;20.45;;;6.25;;
17369;SDS011;8802;52.402;4.920;2024-01-25T08:48:14;25.45;;;5.43;;
17369;SDS011;8802;52.402;4.920;2024-01-25T08:50:41;20.05;;;5.75;;
17369;SDS011;8802;52.402;4.920;2024-01-25T08:53:08;21.48;;;5.10;;
17369;SDS011;8802;52.402;4.920;2024-01-25T08:55:36;23.98;;;5.75;;
17369;SDS011;8802;52.402;4.920;2024-01-25T08:58:04;21.98;;;5.70;;
17369;SDS011;8802;52.402;4.920;2024-01-25T09:00:31;20.52;;;6.35;;
17369;SDS011;8802;52.402;4.920;2024-01-25T09:02:57;23.17;;;5.50;;
17369;SDS011;8802;52.402;4.920;2024-01-25T09:05:24;26.60;;;5.80;;
17369;SDS011;8802;52.402;4.920;2024-01-25T09:07:53;21.33;;;5.20;;
17369;SDS011;8802;52.402;4.920;2024-01-25T09:10:20;20.58;;;4.72;;
17369;SDS011;8802;52.402;4.920;2024-01-25T09:12:47;21.85;;;5.30;;
17369;SDS011;8802;52.402;4.920;2024-01-25T09:15:15;18.50;;;5.50;;
17369;SDS011;8802;52.402;4.920;2024-01-25T09:17:42;23.88;;;5.22;;
17369;SDS011;8802;52.402;4.920;2024-01-25T09:20:10;23.63;;;5.47;;
17369;SDS011;8802;52.402;4.920;2024-01-25T09:22:37;24.40;;;5.80;;
17369;SDS011;8802;52.402;4.920;2024-01-25T09:25:04;25.80;;;5.50;;
17369;SDS011;8802;52.402;4.920;2024-01-25T09:27:32;18.80;;;5.75;;
17369;SDS011;8802;52.402;4.920;2024-01-25T09:29:59;23.45;;;6.03;;
17369;SDS011;8802;52.402;4.920;2024-01-25T09:32:27;23.73;;;5.85;;
17369;SDS011;8802;52.402;4.920;2024-01-25T09:34:54;21.25;;;5.40;;
17369;SDS011;8802;52.402;4.920;2024-01-25T09:37:21;22.58;;;5.88;;
17369;SDS011;8802;52.402;4.920;2024-01-25T09:39:49;14.93;;;4.75;;
17369;SDS011;8802;52.402;4.920;2024-01-25T09:42:16;28.55;;;5.85;;
17369;SDS011;8802;52.402;4.920;2024-01-25T09:44:43;21.67;;;6.47;;
17369;SDS011;8802;52.402;4.920;2024-01-25T09:47:10;22.67;;;5.93;;
17369;SDS011;8802;52.402;4.920;2024-01-25T09:49:39;19.88;;;5.50;;
17369;SDS011;8802;52.402;4.920;2024-01-25T09:52:07;26.70;;;5.82;;
17369;SDS011;8802;52.402;4.920;2024-01-25T09:54:39;17.48;;;5.35;;
17369;SDS011;8802;52.402;4.920;2024-01-25T09:57:07;16.92;;;5.35;;
17369;SDS011;8802;52.402;4.920;2024-01-25T09:59:40;21.95;;;5.95;;
17369;SDS011;8802;52.402;4.920;2024-01-25T10:02:07;26.33;;;5.00;;
17369;SDS011;8802;52.402;4.920;2024-01-25T10:04:35;23.80;;;5.78;;
17369;SDS011;8802;52.402;4.920;2024-01-25T10:07:03;20.10;;;6.15;;
17369;SDS011;8802;52.402;4.920;2024-01-25T10:09:31;27.20;;;5.97;;
17369;SDS011;8802;52.402;4.920;2024-01-25T10:12:05;23.80;;;6.80;;
17369;SDS011;8802;52.402;4.920;2024-01-25T10:14:32;27.13;;;6.30;;
17369;SDS011;8802;52.402;4.920;2024-01-25T10:17:00;20.60;;;5.72;;
17369;SDS011;8802;52.402;4.920;2024-01-25T10:19:27;22.67;;;6.13;;
17369;SDS011;8802;52.402;4.920;2024-01-25T10:21:55;20.95;;;6.45;;
17369;SDS011;8802;52.402;4.920;2024-01-25T10:24:23;21.73;;;6.35;;
17369;SDS011;8802;52.402;4.920;2024-01-25T10:26:50;21.45;;;6.70;;
17369;SDS011;8802;52.402;4.920;2024-01-25T10:29:17;19.23;;;5.93;;
17369;SDS011;8802;52.402;4.920;2024-01-25T10:31:44;15.40;;;4.93;;
17369;SDS011;8802;52.402;4.920;2024-01-25T10:34:13;24.35;;;6.30;;
17369;SDS011;8802;52.402;4.920;2024-01-25T10:36:40;21.52;;;5.80;;
17369;SDS011;8802;52.402;4.920;2024-01-25T10:39:08;22.00;;;5.70;;
17369;SDS011;8802;52.402;4.920;2024-01-25T10:41:37;20.02;;;6.10;;
17369;SDS011;8802;52.402;4.920;2024-01-25T10:44:04;18.83;;;6.55;;
17369;SDS011;8802;52.402;4.920;2024-01-25T10:46:32;24.83;;;6.63;;
17369;SDS011;8802;52.402;4.920;2024-01-25T10:49:00;19.95;;;6.05;;
17369;SDS011;8802;52.402;4.920;2024-01-25T10:51:28;18.52;;;5.75;;
17369;SDS011;8802;52.402;4.920;2024-01-25T10:53:56;19.95;;;5.90;;
17369;SDS011;8802;52.402;4.920;2024-01-25T10:56:24;19.00;;;6.47;;
17369;SDS011;8802;52.402;4.920;2024-01-25T10:58:53;19.38;;;5.95;;
17369;SDS011;8802;52.402;4.920;2024-01-25T11:01:20;19.08;;;5.72;;
17369;SDS011;8802;52.402;4.920;2024-01-25T11:03:46;24.65;;;6.07;;
17369;SDS011;8802;52.402;4.920;2024-01-25T11:06:13;20.50;;;5.78;;
17369;SDS011;8802;52.402;4.920;2024-01-25T11:08:40;21.67;;;6.50;;
17369;SDS011;8802;52.402;4.920;2024-01-25T11:11:08;24.27;;;6.65;;
17369;SDS011;8802;52.402;4.920;2024-01-25T11:13:38;18.83;;;7.30;;
17369;SDS011;8802;52.402;4.920;2024-01-25T11:16:14;22.65;;;6.50;;
17369;SDS011;8802;52.402;4.920;2024-01-25T11:18:48;23.83;;;6.38;;
17369;SDS011;8802;52.402;4.920;2024-01-25T11:21:25;19.80;;;5.90;;
17369;SDS011;8802;52.402;4.920;2024-01-25T11:23:59;23.38;;;6.47;;
17369;SDS011;8802;52.402;4.920;2024-01-25T11:26:27;19.52;;;6.35;;
17369;SDS011;8802;52.402;4.920;2024-01-25T11:28:55;20.40;;;5.88;;
17369;SDS011;8802;52.402;4.920;2024-01-25T11:31:23;23.52;;;7.18;;
17369;SDS011;8802;52.402;4.920;2024-01-25T11:33:50;21.90;;;6.75;;
17369;SDS011;8802;52.402;4.920;2024-01-25T11:36:20;26.67;;;7.20;;
17369;SDS011;8802;52.402;4.920;2024-01-25T11:38:47;22.23;;;6.60;;
17369;SDS011;8802;52.402;4.920;2024-01-25T11:41:14;21.58;;;6.80;;
17369;SDS011;8802;52.402;4.920;2024-01-25T11:43:41;22.75;;;6.57;;
17369;SDS011;8802;52.402;4.920;2024-01-25T11:46:08;21.08;;;6.32;;
17369;SDS011;8802;52.402;4.920;2024-01-25T11:48:39;20.83;;;6.15;;
17369;SDS011;8802;52.402;4.920;2024-01-25T11:51:08;22.02;;;5.78;;
17369;SDS011;8802;52.402;4.920;2024-01-25T11:53:35;21.67;;;6.32;;
17369;SDS011;8802;52.402;4.920;2024-01-25T11:56:02;24.13;;;6.60;;
17369;SDS011;8802;52.402;4.920;2024-01-25T11:58:32;22.77;;;7.15;;
17369;SDS011;8802;52.402;4.920;2024-01-25T12:00:59;24.00;;;6.93;;
17369;SDS011;8802;52.402;4.920;2024-01-25T12:03:30;27.70;;;6.40;;
17369;SDS011;8802;52.402;4.920;2024-01-25T12:05:58;20.17;;;5.70;;
17369;SDS011;8802;52.402;4.920;2024-01-25T12:08:25;22.48;;;6.00;;
17369;SDS011;8802;52.402;4.920;2024-01-25T12:11:01;19.75;;;5.63;;
17369;SDS011;8802;52.402;4.920;2024-01-25T12:13:31;24.52;;;6.07;;
17369;SDS011;8802;52.402;4.920;2024-01-25T12:15:59;22.08;;;6.65;;
17369;SDS011;8802;52.402;4.920;2024-01-25T12:18:26;21.10;;;5.53;;
17369;SDS011;8802;52.402;4.920;2024-01-25T12:20:54;25.67;;;5.65;;
17369;SDS011;8802;52.402;4.920;2024-01-25T12:23:22;21.92;;;6.82;;
17369;SDS011;8802;52.402;4.920;2024-01-25T12:25:55;16.17;;;5.38;;
17369;SDS011;8802;52.402;4.920;2024-01-25T12:28:26;18.52;;;5.50;;
17369;SDS011;8802;52.402;4.920;2024-01-25T12:30:53;24.20;;;6.07;;
17369;SDS011;8802;52.402;4.920;2024-01-25T12:33:20;20.55;;;5.60;;
17369;SDS011;8802;52.402;4.920;2024-01-25T12:35:47;27.08;;;6.60;;
17369;SDS011;8802;52.402;4.920;2024-01-25T12:38:13;19.23;;;5.70;;
17369;SDS011;8802;52.402;4.920;2024-01-25T12:40:42;23.30;;;5.90;;
17369;SDS011;8802;52.402;4.920;2024-01-25T12:43:10;20.20;;;5.50;;
17369;SDS011;8802;52.402;4.920;2024-01-25T12:45:37;19.92;;;5.70;;
17369;SDS011;8802;52.402;4.920;2024-01-25T12:48:04;21.75;;;5.78;;
17369;SDS011;8802;52.402;4.920;2024-01-25T12:50:33;22.98;;;6.35;;
17369;SDS011;8802;52.402;4.920;2024-01-25T12:53:00;19.60;;;5.75;;
17369;SDS011;8802;52.402;4.920;2024-01-25T12:55:28;21.45;;;6.32;;
17369;SDS011;8802;52.402;4.920;2024-01-25T12:57:56;25.50;;;6.95;;
17369;SDS011;8802;52.402;4.920;2024-01-25T13:00:24;23.30;;;6.05;;
17369;SDS011;8802;52.402;4.920;2024-01-25T13:02:51;17.63;;;5.90;;
17369;SDS011;8802;52.402;4.920;2024-01-25T13:05:19;20.92;;;6.38;;
17369;SDS011;8802;52.402;4.920;2024-01-25T13:07:46;26.92;;;7.85;;
17369;SDS011;8802;52.402;4.920;2024-01-25T13:10:13;25.23;;;6.60;;
17369;SDS011;8802;52.402;4.920;2024-01-25T13:12:40;23.27;;;6.50;;
17369;SDS011;8802;52.402;4.920;2024-01-25T13:15:09;27.20;;;7.03;;
17369;SDS011;8802;52.402;4.920;2024-01-25T13:17:36;22.90;;;6.40;;
17369;SDS011;8802;52.402;4.920;2024-01-25T13:20:03;16.50;;;5.75;;
17369;SDS011;8802;52.402;4.920;2024-01-25T13:22:31;22.10;;;7.18;;
17369;SDS011;8802;52.402;4.920;2024-01-25T13:24:58;20.67;;;6.70;;
17369;SDS011;8802;52.402;4.920;2024-01-25T13:27:25;21.50;;;6.43;;
17369;SDS011;8802;52.402;4.920;2024-01-25T13:29:52;21.60;;;6.50;;
17369;SDS011;8802;52.402;4.920;2024-01-25T13:32:22;25.30;;;7.80;;
17369;SDS011;8802;52.402;4.920;2024-01-25T13:34:49;22.85;;;7.47;;
17369;SDS011;8802;52.402;4.920;2024-01-25T13:37:15;22.17;;;7.15;;
17369;SDS011;8802;52.402;4.920;2024-01-25T13:39:42;24.73;;;8.10;;
17369;SDS011;8802;52.402;4.920;2024-01-25T13:42:09;26.58;;;7.20;;
17369;SDS011;8802;52.402;4.920;2024-01-25T13:44:36;24.88;;;7.88;;
17369;SDS011;8802;52.402;4.920;2024-01-25T13:47:04;27.40;;;7.68;;
17369;SDS011;8802;52.402;4.920;2024-01-25T13:49:32;24.55;;;7.43;;
17369;SDS011;8802;52.402;4.920;2024-01-25T13:52:00;24.50;;;7.40;;
17369;SDS011;8802;52.402;4.920;2024-01-25T13:54:28;26.90;;;6.63;;
17369;SDS011;8802;52.402;4.920;2024-01-25T13:56:55;22.33;;;7.00;;
17369;SDS011;8802;52.402;4.920;2024-01-25T13:59:22;25.35;;;7.03;;
17369;SDS011;8802;52.402;4.920;2024-01-25T14:01:50;18.60;;;7.22;;
17369;SDS011;8802;52.402;4.920;2024-01-25T14:04:17;27.33;;;8.07;;
17369;SDS011;8802;52.402;4.920;2024-01-25T14:06:45;24.88;;;7.57;;
17369;SDS011;8802;52.402;4.920;2024-01-25T14:09:12;20.55;;;8.82;;
17369;SDS011;8802;52.402;4.920;2024-01-25T14:11:39;26.85;;;8.43;;
17369;SDS011;8802;52.402;4.920;2024-01-25T14:14:06;22.92;;;8.00;;
17369;SDS011;8802;52.402;4.920;2024-01-25T14:16:33;24.45;;;7.57;;
17369;SDS011;8802;52.402;4.920;2024-01-25T14:19:00;23.75;;;7.55;;
17369;SDS011;8802;52.402;4.920;2024-01-25T14:21:28;24.45;;;8.68;;
17369;SDS011;8802;52.402;4.920;2024-01-25T14:23:56;27.95;;;8.45;;
17369;SDS011;8802;52.402;4.920;2024-01-25T14:26:23;24.05;;;8.73;;
17369;SDS011;8802;52.402;4.920;2024-01-25T14:28:50;26.45;;;8.98;;
17369;SDS011;8802;52.402;4.920;2024-01-25T14:31:17;23.08;;;8.80;;
17369;SDS011;8802;52.402;4.920;2024-01-25T14:33:44;29.88;;;9.60;;
17369;SDS011;8802;52.402;4.920;2024-01-25T14:36:11;29.65;;;9.20;;
17369;SDS011;8802;52.402;4.920;2024-01-25T14:38:39;23.88;;;8.25;;
17369;SDS011;8802;52.402;4.920;2024-01-25T14:41:08;27.23;;;8.45;;
17369;SDS011;8802;52.402;4.920;2024-01-25T14:43:36;23.67;;;8.52;;
17369;SDS011;8802;52.402;4.920;2024-01-25T14:46:04;23.15;;;8.38;;
17369;SDS011;8802;52.402;4.920;2024-01-25T14:48:31;26.85;;;9.43;;